createdAt,value
2023-02-17T00:00:57.077Z,100858.81
2023-02-17T00:03:25.229Z,100854.75
2023-02-17T00:05:52.856Z,100850.31
2023-02-17T00:08:20.058Z,100858.06
2023-02-17T00:10:55.881Z,100847.84
2023-02-17T00:13:22.947Z,100854.84
2023-02-17T00:15:50.042Z,100862.56
2023-02-17T00:18:17.074Z,100783.50
2023-02-17T00:20:44.095Z,100860.19
2023-02-17T00:23:11.081Z,100847.19
2023-02-17T00:25:38.816Z,100863.84
2023-02-17T00:28:05.997Z,100832.84
2023-02-17T00:30:33.272Z,100851.72
2023-02-17T00:33:01.351Z,100855.91
2023-02-17T00:35:28.460Z,100844.16
2023-02-17T00:37:55.587Z,100851.00
2023-02-17T00:40:22.626Z,100854.84
2023-02-17T00:42:49.641Z,100852.69
2023-02-17T00:45:16.969Z,100858.41
2023-02-17T00:47:44.013Z,100864.22
2023-02-17T00:50:11.110Z,100843.44
2023-02-17T00:52:38.246Z,100843.44
2023-02-17T00:55:05.949Z,100851.88
2023-02-17T00:57:32.950Z,100739.00
2023-02-17T01:00:01.364Z,100777.41
2023-02-17T01:02:30.792Z,100851.13
2023-02-17T01:04:57.881Z,100827.41
2023-02-17T01:07:25.001Z,100836.00
2023-02-17T01:09:52.025Z,100831.44
2023-02-17T01:12:19.025Z,100835.56
2023-02-17T01:14:46.029Z,100809.78
2023-02-17T01:17:13.232Z,100792.38
2023-02-17T01:19:40.226Z,100834.25
2023-02-17T01:22:07.303Z,100827.47
2023-02-17T01:24:34.595Z,100824.34
2023-02-17T01:27:03.322Z,100830.50
2023-02-17T01:29:30.321Z,100829.53
2023-02-17T01:31:57.442Z,100820.34
2023-02-17T01:34:27.157Z,100801.44
2023-02-17T01:36:54.440Z,100819.81
2023-02-17T01:39:21.557Z,100836.25
2023-02-17T01:41:48.652Z,100821.38
2023-02-17T01:44:22.040Z,100841.09
2023-02-17T01:46:52.519Z,100836.38
2023-02-17T01:49:37.149Z,100835.13
2023-02-17T01:52:10.316Z,100837.94
2023-02-17T01:54:52.394Z,100831.84
2023-02-17T01:57:23.756Z,100821.84
2023-02-17T01:59:51.973Z,100833.41
2023-02-17T02:02:19.335Z,100838.28
2023-02-17T02:04:51.452Z,100843.50
2023-02-17T02:07:23.477Z,100840.56
2023-02-17T02:09:56.282Z,100836.63
2023-02-17T02:12:26.929Z,100829.53
2023-02-17T02:14:57.616Z,100813.75
2023-02-17T02:17:40.447Z,100844.66
2023-02-17T02:20:25.971Z,100838.97
2023-02-17T02:23:05.061Z,100840.47
2023-02-17T02:25:32.024Z,100835.94
2023-02-17T02:28:36.091Z,100839.25
2023-02-17T02:31:12.222Z,100835.63
2023-02-17T02:34:19.510Z,100817.16
2023-02-17T02:37:00.611Z,100810.00
2023-02-17T02:39:38.975Z,100833.09
2023-02-17T02:42:11.174Z,100834.94
2023-02-17T02:44:38.369Z,100836.22
2023-02-17T02:47:26.342Z,100838.25
2023-02-17T02:49:53.636Z,100838.53
2023-02-17T02:52:33.452Z,100844.63
2023-02-17T02:55:23.381Z,100837.22
2023-02-17T02:58:13.177Z,100828.66
2023-02-17T03:00:59.732Z,100819.94
2023-02-17T03:03:59.620Z,100840.34
2023-02-17T03:06:32.725Z,100813.31
2023-02-17T03:09:06.941Z,100833.94
2023-02-17T03:11:33.994Z,100835.41
2023-02-17T03:14:09.308Z,100829.66
2023-02-17T03:16:38.725Z,100841.59
2023-02-17T03:19:07.110Z,100820.84
2023-02-17T03:21:36.809Z,100833.03
2023-02-17T03:24:04.244Z,100829.19
2023-02-17T03:26:31.233Z,100783.28
2023-02-17T03:28:58.310Z,100819.41
2023-02-17T03:31:25.550Z,100829.31
2023-02-17T03:33:52.564Z,100833.66
2023-02-17T03:36:19.755Z,100835.56
2023-02-17T03:38:47.682Z,100832.91
2023-02-17T03:41:14.823Z,100811.09
2023-02-17T03:43:41.820Z,100834.41
2023-02-17T03:46:12.177Z,100835.09
2023-02-17T03:48:39.853Z,100844.63
2023-02-17T03:51:12.412Z,100845.38
2023-02-17T03:53:40.035Z,100842.97
2023-02-17T03:56:07.817Z,100839.88
2023-02-17T03:58:35.231Z,100840.94
2023-02-17T04:01:02.277Z,100845.03
2023-02-17T04:03:29.416Z,100845.78
2023-02-17T04:05:56.501Z,100843.84
2023-02-17T04:08:24.093Z,100848.53
2023-02-17T04:10:56.453Z,100841.25
2023-02-17T04:13:23.648Z,100856.41
2023-02-17T04:15:51.566Z,100852.94
2023-02-17T04:18:19.237Z,100853.72
2023-02-17T04:20:48.784Z,100849.13
2023-02-17T04:23:16.500Z,100835.22
2023-02-17T04:25:43.730Z,100846.44
2023-02-17T04:28:11.985Z,100844.25
2023-02-17T04:30:39.907Z,100845.69
2023-02-17T04:33:07.080Z,100837.31
2023-02-17T04:35:34.132Z,100844.41
2023-02-17T04:38:01.121Z,100829.19
2023-02-17T04:40:28.192Z,100832.97
2023-02-17T04:42:55.206Z,100835.91
2023-02-17T04:45:22.735Z,100832.75
2023-02-17T04:47:49.806Z,100833.63
2023-02-17T04:50:17.033Z,100833.94
2023-02-17T04:52:44.080Z,100828.19
2023-02-17T04:55:11.519Z,100812.41
2023-02-17T04:57:39.676Z,100815.34
2023-02-17T05:00:08.671Z,100834.53
2023-02-17T05:02:35.873Z,100833.94
2023-02-17T05:05:03.472Z,100835.06
2023-02-17T05:07:31.279Z,100853.50
2023-02-17T05:09:58.257Z,100848.84
2023-02-17T05:12:25.296Z,100841.53
2023-02-17T05:14:52.309Z,100842.88
2023-02-17T05:17:19.339Z,100839.94
2023-02-17T05:19:46.441Z,100837.69
2023-02-17T05:22:13.478Z,100836.63
2023-02-17T05:24:40.458Z,100775.75
2023-02-17T05:27:08.829Z,100842.03
2023-02-17T05:29:35.887Z,100836.25
2023-02-17T05:32:03.265Z,100844.88
2023-02-17T05:34:30.744Z,100843.44
2023-02-17T05:36:57.775Z,100846.34
2023-02-17T05:39:25.030Z,100838.38
2023-02-17T05:41:52.097Z,100849.78
2023-02-17T05:44:19.340Z,100843.19
2023-02-17T05:46:46.627Z,100842.84
2023-02-17T05:49:13.830Z,100844.28
2023-02-17T05:51:40.845Z,100830.22
2023-02-17T05:54:07.880Z,100843.66
2023-02-17T05:56:34.877Z,100781.59
2023-02-17T05:59:01.951Z,100826.66
2023-02-17T06:01:29.020Z,100827.81
2023-02-17T06:03:56.028Z,100842.13
2023-02-17T06:06:23.173Z,100841.91
2023-02-17T06:08:50.240Z,100828.50
2023-02-17T06:11:17.253Z,100845.28
2023-02-17T06:13:44.360Z,100857.13
2023-02-17T06:16:11.420Z,100852.25
2023-02-17T06:18:38.464Z,100854.06
2023-02-17T06:21:05.881Z,100855.34
2023-02-17T06:23:33.699Z,100856.56
2023-02-17T06:26:00.827Z,100836.66
2023-02-17T06:28:27.945Z,100863.13
2023-02-17T06:30:54.948Z,100859.88
2023-02-17T06:33:21.983Z,100855.31
2023-02-17T06:35:52.647Z,100857.50
2023-02-17T06:38:19.995Z,100853.31
2023-02-17T06:40:47.293Z,100857.03
2023-02-17T06:43:14.590Z,100835.00
2023-02-17T06:45:41.738Z,100869.22
2023-02-17T06:48:08.848Z,100869.75
2023-02-17T06:50:36.305Z,100845.69
2023-02-17T06:53:03.397Z,100846.00
2023-02-17T06:55:30.458Z,100865.03
2023-02-17T06:57:57.737Z,100844.19
2023-02-17T07:00:24.720Z,100862.78
2023-02-17T07:02:51.814Z,100855.88
2023-02-17T07:05:19.014Z,100859.72
2023-02-17T07:07:46.021Z,100864.31
2023-02-17T07:10:13.906Z,100838.03
2023-02-17T07:12:41.085Z,100856.47
2023-02-17T07:15:12.064Z,100680.91
2023-02-17T07:17:39.521Z,100859.00
2023-02-17T07:20:07.329Z,100803.22
2023-02-17T07:22:34.322Z,100839.13
2023-02-17T07:25:01.424Z,100842.16
2023-02-17T07:27:30.390Z,100855.94
2023-02-17T07:29:57.755Z,100855.41
2023-02-17T07:32:24.752Z,100852.94
2023-02-17T07:34:51.800Z,100851.41
2023-02-17T07:37:21.908Z,100851.97
2023-02-17T07:39:49.341Z,100842.84
2023-02-17T07:42:16.330Z,100843.97
2023-02-17T07:44:45.468Z,100827.31
2023-02-17T07:47:12.521Z,100842.94
2023-02-17T07:49:39.617Z,100854.91
2023-02-17T07:52:07.110Z,100835.34
2023-02-17T07:54:34.121Z,100845.75
2023-02-17T07:57:01.158Z,100846.38
2023-02-17T07:59:28.259Z,100844.59
2023-02-17T08:01:55.336Z,100832.78
2023-02-17T08:04:22.459Z,100831.63
2023-02-17T08:06:49.531Z,100822.97
2023-02-17T08:09:35.254Z,100835.66
2023-02-17T08:12:20.949Z,100838.69
2023-02-17T08:14:47.976Z,100819.13
2023-02-17T08:17:16.040Z,100822.66
2023-02-17T08:19:48.659Z,100828.50
2023-02-17T08:22:19.243Z,100831.44
2023-02-17T08:24:46.427Z,100819.06
2023-02-17T08:27:15.626Z,100824.03
2023-02-17T08:29:43.154Z,100801.69
2023-02-17T08:32:10.263Z,100824.66
2023-02-17T08:34:37.574Z,100823.56
2023-02-17T08:37:06.420Z,100823.63
2023-02-17T08:39:34.064Z,100819.69
2023-02-17T08:42:02.296Z,100830.53
2023-02-17T08:44:29.365Z,100827.03
2023-02-17T08:46:56.622Z,100828.00
2023-02-17T08:49:27.042Z,100825.31
2023-02-17T08:51:54.430Z,100808.19
2023-02-17T08:54:21.434Z,100815.47
2023-02-17T08:56:48.530Z,100780.81
2023-02-17T08:59:15.836Z,100803.31
2023-02-17T09:01:43.819Z,100803.75
2023-02-17T09:04:12.679Z,100807.13
2023-02-17T09:06:49.933Z,100802.50
2023-02-17T09:09:20.857Z,100811.09
2023-02-17T09:11:48.461Z,100794.28
2023-02-17T09:14:15.513Z,100779.41
2023-02-17T09:16:42.625Z,100806.50
2023-02-17T09:19:09.683Z,100798.75
2023-02-17T09:21:37.208Z,100800.78
2023-02-17T09:24:04.593Z,100804.81
2023-02-17T09:26:31.629Z,100796.88
2023-02-17T09:28:59.245Z,100803.50
2023-02-17T09:31:27.419Z,100778.22
2023-02-17T09:33:55.482Z,100799.19
2023-02-17T09:36:26.342Z,100808.53
2023-02-17T09:38:54.179Z,100791.84
2023-02-17T09:41:23.999Z,100780.59
2023-02-17T09:43:52.598Z,100773.59
2023-02-17T09:46:29.902Z,100789.88
2023-02-17T09:49:02.588Z,100791.78
2023-02-17T09:51:51.092Z,100785.75
2023-02-17T09:54:26.754Z,100780.66
2023-02-17T09:56:57.202Z,100786.06
2023-02-17T09:59:43.098Z,100751.66
2023-02-17T10:02:19.457Z,100776.94
2023-02-17T10:04:48.769Z,100775.75
2023-02-17T10:07:25.899Z,100783.22
2023-02-17T10:09:55.935Z,100776.59
2023-02-17T10:12:28.136Z,100779.09
2023-02-17T10:14:57.851Z,100777.94
2023-02-17T10:17:47.247Z,100755.63
2023-02-17T10:20:19.586Z,100781.09
2023-02-17T10:22:52.914Z,100738.06
2023-02-17T10:26:05.654Z,100771.03
2023-02-17T10:28:48.440Z,100707.09
2023-02-17T10:31:45.922Z,100758.31
2023-02-17T10:34:19.333Z,100745.34
2023-02-17T10:37:25.163Z,100742.44
2023-02-17T10:39:55.241Z,100735.34
2023-02-17T10:42:29.664Z,100732.66
2023-02-17T10:45:13.561Z,100664.66
2023-02-17T10:47:41.265Z,100748.06
2023-02-17T10:50:28.638Z,100722.22
2023-02-17T10:52:56.591Z,100730.91
2023-02-17T10:55:41.886Z,100691.19
2023-02-17T10:58:19.829Z,100708.78
2023-02-17T11:00:49.860Z,100577.69
2023-02-17T11:03:28.779Z,100712.06
2023-02-17T11:05:58.977Z,100735.97
2023-02-17T11:08:49.311Z,100728.38
2023-02-17T11:11:17.980Z,100726.00
2023-02-17T11:14:03.724Z,100731.41
2023-02-17T11:16:44.299Z,100660.00
2023-02-17T11:19:30.430Z,100702.03
2023-02-17T11:22:00.415Z,100720.59
2023-02-17T11:24:29.448Z,100724.59
2023-02-17T11:27:03.114Z,100715.22
2023-02-17T11:29:30.744Z,100720.53
2023-02-17T11:32:07.357Z,100714.59
2023-02-17T11:34:40.761Z,100663.13
2023-02-17T11:37:14.024Z,100705.72
2023-02-17T11:39:44.723Z,100708.09
2023-02-17T11:42:26.258Z,100699.78
2023-02-17T11:44:56.527Z,100678.78
2023-02-17T11:47:38.237Z,100699.09
2023-02-17T11:50:39.035Z,100696.13
2023-02-17T11:53:23.450Z,100691.78
2023-02-17T11:56:19.936Z,100696.34
2023-02-17T11:59:17.649Z,100646.50
2023-02-17T12:01:56.782Z,100673.59
2023-02-17T12:04:51.971Z,100687.72
2023-02-17T12:07:31.446Z,100676.81
2023-02-17T12:10:04.802Z,100679.53
2023-02-17T12:13:07.385Z,100681.50
2023-02-17T12:15:54.391Z,100682.38
2023-02-17T12:18:45.077Z,100685.06
2023-02-17T12:21:20.862Z,100685.53
2023-02-17T12:24:49.216Z,100675.31
2023-02-17T12:27:34.199Z,100673.59
2023-02-17T12:30:31.659Z,100663.59
2023-02-17T12:33:07.880Z,100672.81
2023-02-17T12:36:03.177Z,100676.84
2023-02-17T12:38:37.272Z,100673.19
2023-02-17T12:41:36.706Z,100682.22
2023-02-17T12:44:10.721Z,100663.69
2023-02-17T12:46:43.897Z,100679.81
2023-02-17T12:49:34.823Z,100681.31
2023-02-17T12:52:11.336Z,100680.84
2023-02-17T12:54:42.053Z,100680.84
2023-02-17T12:57:11.667Z,100675.88
2023-02-17T12:59:41.635Z,100680.97
2023-02-17T13:02:15.249Z,100679.97
2023-02-17T13:04:44.689Z,100662.31
2023-02-17T13:07:30.184Z,100675.63
2023-02-17T13:09:57.847Z,100670.19
2023-02-17T13:12:24.849Z,100671.97
2023-02-17T13:15:00.482Z,100653.31
2023-02-17T13:17:37.063Z,100655.44
2023-02-17T13:20:25.500Z,100640.47
2023-02-17T13:23:04.874Z,100650.44
2023-02-17T13:25:37.540Z,100665.41
2023-02-17T13:28:18.758Z,100656.88
2023-02-17T13:30:48.937Z,100669.91
2023-02-17T13:33:43.240Z,100658.00
2023-02-17T13:36:33.365Z,100660.22
2023-02-17T13:39:26.243Z,100648.94
2023-02-17T13:41:59.310Z,100626.31
2023-02-17T13:44:30.201Z,100627.72
2023-02-17T13:47:19.594Z,100627.97
2023-02-17T13:49:54.335Z,100640.13
2023-02-17T13:52:27.646Z,100646.38
2023-02-17T13:54:57.009Z,100621.81
2023-02-17T13:57:33.634Z,100627.72
2023-02-17T14:00:18.946Z,100649.91
2023-02-17T14:02:49.042Z,100644.44
2023-02-17T14:05:27.277Z,100641.91
2023-02-17T14:08:00.582Z,100644.31
2023-02-17T14:10:28.067Z,100637.06
2023-02-17T14:12:55.664Z,100636.78
2023-02-17T14:15:26.716Z,100618.72
2023-02-17T14:17:54.260Z,100636.34
2023-02-17T14:20:39.410Z,100631.63
2023-02-17T14:23:14.257Z,100633.69
2023-02-17T14:25:46.741Z,100627.06
2023-02-17T14:28:25.412Z,100536.56
2023-02-17T14:30:53.486Z,100628.09
2023-02-17T14:33:24.665Z,100628.97
2023-02-17T14:36:09.244Z,100624.75
2023-02-17T14:38:40.829Z,100632.28
2023-02-17T14:41:11.844Z,100622.88
2023-02-17T14:43:38.926Z,100634.06
2023-02-17T14:46:06.322Z,100612.44
2023-02-17T14:48:33.496Z,100629.59
2023-02-17T14:51:00.622Z,100625.84
2023-02-17T14:53:33.288Z,100622.69
2023-02-17T14:56:07.744Z,100634.88
2023-02-17T14:58:35.301Z,100622.00
2023-02-17T15:01:02.641Z,100632.88
2023-02-17T15:03:29.727Z,100636.09
2023-02-17T15:05:56.918Z,100640.09
2023-02-17T15:08:34.117Z,100622.59
2023-02-17T15:11:02.369Z,100467.53
2023-02-17T15:13:31.887Z,100641.09
2023-02-17T15:15:59.502Z,100650.22
2023-02-17T15:18:28.148Z,100638.06
2023-02-17T15:20:55.695Z,100632.09
2023-02-17T15:23:25.837Z,100636.50
2023-02-17T15:25:55.587Z,100643.03
2023-02-17T15:28:22.895Z,100625.19
2023-02-17T15:30:54.831Z,100635.31
2023-02-17T15:33:23.865Z,100634.03
2023-02-17T15:35:56.506Z,100630.75
2023-02-17T15:38:24.653Z,100632.16
2023-02-17T15:40:51.790Z,100644.59
2023-02-17T15:43:23.107Z,100632.03
2023-02-17T15:45:50.325Z,100617.06
2023-02-17T15:48:24.549Z,100597.63
2023-02-17T15:50:52.556Z,100628.94
2023-02-17T15:53:19.971Z,100636.56
2023-02-17T15:55:47.581Z,100625.28
2023-02-17T15:58:17.379Z,100626.69
2023-02-17T16:00:50.066Z,100595.38
2023-02-17T16:03:17.596Z,100611.09
2023-02-17T16:05:44.782Z,100614.41
2023-02-17T16:08:11.973Z,100618.44
2023-02-17T16:10:42.231Z,100603.25
2023-02-17T16:13:14.833Z,100608.69
2023-02-17T16:15:42.899Z,100598.06
2023-02-17T16:18:21.411Z,100601.06
2023-02-17T16:20:49.317Z,100588.66
2023-02-17T16:23:16.320Z,100592.19
2023-02-17T16:25:45.219Z,100606.94
2023-02-17T16:28:21.441Z,100594.41
2023-02-17T16:30:49.720Z,100582.97
2023-02-17T16:33:17.786Z,100588.44
2023-02-17T16:35:44.876Z,100583.09
2023-02-17T16:38:23.020Z,100593.53
2023-02-17T16:40:52.589Z,100589.59
2023-02-17T16:43:23.036Z,100584.13
2023-02-17T16:45:57.203Z,100582.09
2023-02-17T16:48:28.576Z,100573.09
2023-02-17T16:50:56.305Z,100573.09
2023-02-17T16:53:23.533Z,100573.47
2023-02-17T16:55:52.794Z,100575.78
2023-02-17T16:58:24.777Z,100563.59
2023-02-17T17:00:55.073Z,100561.28
2023-02-17T17:03:22.793Z,100562.59
2023-02-17T17:05:52.326Z,100499.91
2023-02-17T17:08:21.597Z,100555.31
2023-02-17T17:10:49.589Z,100551.78
2023-02-17T17:13:16.852Z,100554.84
2023-02-17T17:15:45.604Z,100550.38
2023-02-17T17:18:21.451Z,100549.25
2023-02-17T17:20:49.037Z,100526.66
2023-02-17T17:23:16.617Z,100540.75
2023-02-17T17:25:46.742Z,100505.47
2023-02-17T17:28:16.251Z,100523.72
2023-02-17T17:30:43.597Z,100519.06
2023-02-17T17:33:10.710Z,100523.13
2023-02-17T17:35:37.918Z,100520.72
2023-02-17T17:38:05.212Z,100442.44
2023-02-17T17:40:48.722Z,100517.53
2023-02-17T17:43:18.892Z,100485.56
2023-02-17T17:45:46.995Z,100493.44
2023-02-17T17:48:15.232Z,100494.31
2023-02-17T17:50:43.236Z,100496.09
2023-02-17T17:53:10.585Z,100506.63
2023-02-17T17:55:37.840Z,100498.25
2023-02-17T17:58:05.116Z,100495.34
2023-02-17T18:00:32.338Z,100472.53
2023-02-17T18:02:59.381Z,100496.34
2023-02-17T18:05:26.538Z,100486.34
2023-02-17T18:07:53.818Z,100489.38
2023-02-17T18:10:20.961Z,100487.84
2023-02-17T18:12:48.755Z,100487.47
2023-02-17T18:15:17.378Z,100464.66
2023-02-17T18:17:46.683Z,100474.91
2023-02-17T18:20:14.578Z,100450.44
2023-02-17T18:22:41.672Z,100475.16
2023-02-17T18:25:09.404Z,100471.13
2023-02-17T18:27:41.447Z,100392.63
2023-02-17T18:30:10.294Z,100465.16
2023-02-17T18:32:37.335Z,100441.06
2023-02-17T18:35:05.236Z,100471.25
2023-02-17T18:37:33.106Z,100472.28
2023-02-17T18:40:01.246Z,100283.25
2023-02-17T18:42:30.374Z,100477.56
2023-02-17T18:44:57.412Z,100471.13
2023-02-17T18:47:24.441Z,100435.22
2023-02-17T18:49:51.992Z,100460.75
2023-02-17T18:52:19.076Z,100440.44
2023-02-17T18:54:46.253Z,100463.50
2023-02-17T18:57:13.597Z,100456.66
2023-02-17T18:59:40.610Z,100373.50
2023-02-17T19:02:10.114Z,100448.28
2023-02-17T19:04:37.177Z,100433.97
2023-02-17T19:07:07.068Z,100440.16
2023-02-17T19:09:36.440Z,100421.16
2023-02-17T19:12:04.018Z,100382.22
2023-02-17T19:14:32.349Z,100378.53
2023-02-17T19:16:59.395Z,100425.09
2023-02-17T19:19:29.338Z,100439.63
2023-02-17T19:21:56.358Z,100432.19
2023-02-17T19:24:23.581Z,100415.56
2023-02-17T19:26:50.659Z,100441.53
2023-02-17T19:29:17.819Z,100420.63
2023-02-17T19:31:44.908Z,100407.72
2023-02-17T19:34:12.177Z,100414.91
2023-02-17T19:36:39.256Z,100413.53
2023-02-17T19:39:06.357Z,100402.66
2023-02-17T19:41:35.696Z,100421.63
2023-02-17T19:44:03.089Z,100425.19
2023-02-17T19:46:30.199Z,100423.31
2023-02-17T19:48:57.256Z,100419.38
2023-02-17T19:51:24.385Z,100411.78
2023-02-17T19:53:51.504Z,100413.31
2023-02-17T19:56:20.474Z,100404.56
2023-02-17T19:58:48.456Z,100405.81
2023-02-17T20:01:19.648Z,100411.41
2023-02-17T20:03:46.759Z,100385.69
2023-02-17T20:06:17.434Z,100406.94
2023-02-17T20:08:45.964Z,100400.75
2023-02-17T20:11:14.462Z,100377.53
2023-02-17T20:13:46.177Z,100402.47
2023-02-17T20:16:15.397Z,100398.19
2023-02-17T20:18:44.954Z,100386.88
2023-02-17T20:21:15.025Z,100397.31
2023-02-17T20:23:42.330Z,100371.47
2023-02-17T20:26:13.210Z,100340.31
2023-02-17T20:28:40.677Z,100385.81
2023-02-17T20:31:08.880Z,100391.25
2023-02-17T20:33:36.498Z,100390.34
2023-02-17T20:36:05.255Z,100392.75
2023-02-17T20:38:32.639Z,100393.13
2023-02-17T20:41:00.417Z,100394.16
2023-02-17T20:43:27.591Z,100390.84
2023-02-17T20:45:54.780Z,100385.88
2023-02-17T20:48:27.516Z,100366.03
2023-02-17T20:50:56.004Z,100368.94
2023-02-17T20:53:24.096Z,100349.53
2023-02-17T20:55:51.565Z,100331.91
2023-02-17T20:58:19.084Z,100347.38
2023-02-17T21:00:46.305Z,100356.03
2023-02-17T21:03:13.420Z,100338.16
2023-02-17T21:05:40.546Z,100357.69
2023-02-17T21:08:07.763Z,100334.84
2023-02-17T21:10:35.138Z,100336.88
2023-02-17T21:13:02.236Z,100339.16
2023-02-17T21:15:29.365Z,100313.16
2023-02-17T21:17:56.410Z,100323.31
2023-02-17T21:20:24.644Z,100302.31
2023-02-17T21:22:51.818Z,100323.44
2023-02-17T21:25:19.053Z,100295.97
2023-02-17T21:27:46.162Z,100315.69
2023-02-17T21:30:14.413Z,100311.44
2023-02-17T21:32:41.803Z,100274.66
2023-02-17T21:35:10.369Z,100295.78
2023-02-17T21:37:39.128Z,100303.78
2023-02-17T21:40:10.807Z,100305.84
2023-02-17T21:42:56.720Z,100302.06
2023-02-17T21:45:24.767Z,100257.22
2023-02-17T21:47:52.043Z,100254.56
2023-02-17T21:50:19.284Z,100263.81
2023-02-17T21:52:46.370Z,100293.84
2023-02-17T21:55:13.678Z,100284.44
2023-02-17T21:57:40.829Z,100286.34
2023-02-17T22:00:09.002Z,100283.78
2023-02-17T22:02:45.009Z,100281.13
2023-02-17T22:05:12.239Z,100261.78
2023-02-17T22:07:39.261Z,100260.72
2023-02-17T22:10:06.944Z,100250.38
2023-02-17T22:12:36.553Z,100267.84
2023-02-17T22:15:05.823Z,100269.97
2023-02-17T22:17:34.964Z,100259.69
2023-02-17T22:20:03.573Z,100180.97
2023-02-17T22:22:31.038Z,100262.06
2023-02-17T22:24:58.080Z,100255.19
2023-02-17T22:27:25.152Z,100254.78
2023-02-17T22:29:52.148Z,100257.09
2023-02-17T22:32:19.167Z,100236.97
2023-02-17T22:34:46.194Z,100244.44
2023-02-17T22:37:13.345Z,100197.91
2023-02-17T22:39:40.327Z,100237.25
2023-02-17T22:42:07.299Z,100243.00
2023-02-17T22:44:34.321Z,100167.19
2023-02-17T22:47:01.391Z,100232.38
2023-02-17T22:49:28.454Z,100224.91
2023-02-17T22:51:55.449Z,100233.13
2023-02-17T22:54:22.462Z,100222.03
2023-02-17T22:56:49.532Z,100176.28
2023-02-17T22:59:16.497Z,100222.94
2023-02-17T23:01:43.505Z,100225.56
2023-02-17T23:04:13.554Z,100221.28
2023-02-17T23:06:41.544Z,100213.56
2023-02-17T23:09:12.179Z,100212.81
2023-02-17T23:11:57.787Z,100195.44
2023-02-17T23:14:36.655Z,100207.13
2023-02-17T23:17:09.595Z,100204.28
2023-02-17T23:19:38.157Z,100203.75
2023-02-17T23:22:09.241Z,100192.66
2023-02-17T23:24:36.483Z,100196.78
2023-02-17T23:27:04.451Z,100192.84
2023-02-17T23:29:32.389Z,100186.69
2023-02-17T23:31:59.797Z,100182.66
2023-02-17T23:34:28.603Z,100174.84
2023-02-17T23:36:56.056Z,100167.19
2023-02-17T23:39:23.263Z,100152.00
2023-02-17T23:41:50.307Z,100146.97
2023-02-17T23:44:17.406Z,100134.00
2023-02-17T23:46:45.208Z,100158.72
2023-02-17T23:49:18.093Z,100165.19
2023-02-17T23:51:47.285Z,100163.19
2023-02-17T23:54:51.819Z,100159.47
2023-02-17T23:57:56.504Z,100162.13
